createdAt,value
2023-05-12T00:02:16.473Z,5.05
2023-05-12T00:05:18.574Z,6.22
2023-05-12T00:08:20.228Z,6.47
2023-05-12T00:11:22.515Z,6.80
2023-05-12T00:14:25.596Z,6.75
2023-05-12T00:17:28.906Z,6.17
2023-05-12T00:20:33.529Z,6.40
2023-05-12T00:23:38.373Z,6.13
2023-05-12T00:26:40.314Z,5.90
2023-05-12T00:29:48.993Z,5.50
2023-05-12T00:32:51.379Z,5.45
2023-05-12T00:35:53.492Z,6.05
2023-05-12T00:38:56.248Z,6.30
2023-05-12T00:41:59.287Z,5.70
2023-05-12T00:45:01.594Z,5.65
2023-05-12T00:48:05.024Z,6.07
2023-05-12T00:51:07.266Z,6.07
2023-05-12T00:54:09.827Z,5.82
2023-05-12T00:57:12.905Z,5.67
2023-05-12T01:00:14.821Z,6.20
2023-05-12T01:03:20.631Z,5.85
2023-05-12T01:06:30.367Z,5.95
2023-05-12T01:09:32.536Z,5.90
2023-05-12T01:12:35.119Z,5.90
2023-05-12T01:15:42.229Z,6.13
2023-05-12T01:18:49.950Z,6.27
2023-05-12T01:21:53.615Z,6.63
2023-05-12T01:25:03.156Z,6.65
2023-05-12T01:28:07.206Z,6.70
2023-05-12T01:31:11.851Z,7.13
2023-05-12T01:34:21.500Z,6.93
2023-05-12T01:37:27.231Z,7.15
2023-05-12T01:40:30.303Z,6.90
2023-05-12T01:43:33.070Z,6.68
2023-05-12T01:46:34.987Z,6.45
2023-05-12T01:49:38.059Z,6.30
2023-05-12T01:52:44.633Z,6.35
2023-05-12T01:55:48.955Z,6.65
2023-05-12T01:58:51.443Z,6.37
2023-05-12T02:01:54.002Z,6.45
2023-05-12T02:05:04.243Z,6.97
2023-05-12T02:08:06.121Z,6.90
2023-05-12T02:11:09.735Z,7.10
2023-05-12T02:14:12.538Z,7.60
2023-05-12T02:17:14.706Z,7.78
2023-05-12T02:20:17.320Z,7.40
2023-05-12T02:23:21.678Z,8.10
2023-05-12T02:26:24.263Z,7.97
2023-05-12T02:29:26.846Z,7.67
2023-05-12T02:32:29.786Z,7.68
2023-05-12T02:35:32.383Z,7.78
2023-05-12T02:38:34.277Z,8.23
2023-05-12T02:41:36.806Z,7.60
2023-05-12T02:44:38.447Z,8.00
2023-05-12T02:47:40.808Z,7.55
2023-05-12T02:50:43.221Z,7.93
2023-05-12T02:53:45.367Z,7.80
2023-05-12T02:56:47.308Z,7.78
2023-05-12T02:59:49.269Z,8.20
2023-05-12T03:02:51.740Z,7.63
2023-05-12T03:05:53.924Z,8.07
2023-05-12T03:08:55.892Z,8.60
2023-05-12T03:11:57.674Z,8.57
2023-05-12T03:14:59.410Z,8.70
2023-05-12T03:18:01.600Z,8.63
2023-05-12T03:21:05.658Z,8.57
2023-05-12T03:24:07.829Z,8.00
2023-05-12T03:27:09.964Z,8.27
2023-05-12T03:30:12.957Z,8.57
2023-05-12T03:33:15.848Z,9.35
2023-05-12T03:36:18.635Z,9.20
2023-05-12T03:39:23.369Z,8.20
2023-05-12T03:42:25.213Z,9.25
2023-05-12T03:45:26.856Z,8.77
2023-05-12T03:48:29.116Z,8.77
2023-05-12T03:51:31.408Z,8.70
2023-05-12T03:54:32.999Z,8.98
2023-05-12T03:57:36.455Z,8.80
2023-05-12T04:00:39.661Z,9.00
2023-05-12T04:03:41.969Z,9.00
2023-05-12T04:06:45.830Z,8.15
2023-05-12T04:09:48.378Z,8.38
2023-05-12T04:12:50.521Z,7.90
2023-05-12T04:15:56.025Z,8.43
2023-05-12T04:18:58.355Z,8.70
2023-05-12T04:22:00.578Z,7.70
2023-05-12T04:25:02.196Z,7.32
2023-05-12T04:28:04.688Z,7.68
2023-05-12T04:31:07.077Z,7.10
2023-05-12T04:34:10.542Z,6.88
2023-05-12T04:37:13.301Z,8.35
2023-05-12T04:40:15.678Z,8.32
2023-05-12T04:46:26.081Z,9.20
2023-05-12T04:49:29.774Z,8.93
2023-05-12T04:52:31.851Z,8.87
2023-05-12T04:55:34.172Z,9.20
2023-05-12T04:58:35.876Z,9.63
2023-05-12T05:01:38.010Z,8.67
2023-05-12T05:04:40.235Z,8.38
2023-05-12T05:07:42.003Z,8.00
2023-05-12T05:10:44.271Z,8.55
2023-05-12T05:13:46.384Z,8.48
2023-05-12T05:16:49.876Z,8.10
2023-05-12T05:19:58.156Z,6.93
2023-05-12T05:23:03.733Z,6.77
2023-05-12T05:26:07.157Z,6.55
2023-05-12T05:29:09.470Z,7.32
2023-05-12T05:32:12.462Z,6.80
2023-05-12T05:35:14.954Z,7.53
2023-05-12T05:38:21.454Z,7.80
2023-05-12T05:41:23.814Z,8.00
2023-05-12T05:44:26.266Z,8.85
2023-05-12T05:47:29.388Z,8.07
2023-05-12T05:50:31.637Z,8.65
2023-05-12T05:53:33.495Z,9.00
2023-05-12T05:56:36.060Z,8.52
2023-05-12T05:59:38.396Z,8.32
2023-05-12T06:02:41.967Z,8.27
2023-05-12T06:05:46.174Z,8.27
2023-05-12T06:08:48.440Z,8.18
2023-05-12T06:11:50.208Z,9.18
2023-05-12T06:14:51.868Z,8.02
2023-05-12T06:17:54.542Z,6.97
2023-05-12T06:20:56.640Z,6.70
2023-05-12T06:23:58.221Z,6.63
2023-05-12T06:26:59.870Z,6.10
2023-05-12T06:30:02.034Z,6.82
2023-05-12T06:33:04.950Z,6.77
2023-05-12T06:36:07.075Z,5.63
2023-05-12T06:39:09.664Z,5.75
2023-05-12T06:42:12.351Z,5.63
2023-05-12T06:45:16.512Z,5.82
2023-05-12T06:48:18.335Z,5.57
2023-05-12T06:51:19.979Z,5.70
2023-05-12T06:54:21.674Z,5.80
2023-05-12T06:57:24.236Z,5.78
2023-05-12T07:00:26.361Z,5.75
2023-05-12T07:03:31.944Z,5.30
2023-05-12T07:06:34.538Z,5.53
2023-05-12T07:09:36.192Z,6.28
2023-05-12T07:12:39.255Z,5.75
2023-05-12T07:15:41.673Z,5.80
2023-05-12T07:18:43.916Z,5.85
2023-05-12T07:21:53.810Z,5.72
2023-05-12T07:24:59.094Z,5.90
2023-05-12T07:28:00.789Z,5.85
2023-05-12T07:31:07.289Z,6.32
2023-05-12T07:34:08.932Z,5.22
2023-05-12T07:37:12.531Z,5.60
2023-05-12T07:40:14.165Z,5.30
2023-05-12T07:43:17.667Z,4.60
2023-05-12T07:46:19.491Z,4.30
2023-05-12T07:49:23.240Z,4.50
2023-05-12T07:52:25.449Z,3.53
2023-05-12T07:55:27.622Z,4.10
2023-05-12T07:58:29.208Z,4.07
2023-05-12T08:01:30.798Z,4.00
2023-05-12T08:04:34.049Z,3.60
2023-05-12T08:07:37.626Z,3.22
2023-05-12T08:10:39.986Z,3.15
2023-05-12T08:13:42.074Z,3.45
2023-05-12T08:16:46.464Z,3.50
2023-05-12T08:19:48.328Z,3.10
2023-05-12T08:22:50.939Z,3.00
2023-05-12T08:25:53.018Z,2.80
2023-05-12T08:28:54.979Z,3.30
2023-05-12T08:31:58.272Z,3.22
2023-05-12T08:35:00.928Z,3.42
2023-05-12T08:38:02.730Z,3.30
2023-05-12T08:41:19.297Z,3.20
2023-05-12T08:44:21.160Z,3.10
2023-05-12T08:47:25.673Z,3.00
2023-05-12T08:50:31.062Z,2.92
2023-05-12T08:53:34.339Z,2.90
2023-05-12T08:59:45.890Z,3.30
2023-05-12T09:02:53.918Z,2.90
2023-05-12T09:06:00.730Z,3.35
2023-05-12T09:09:03.328Z,3.20
2023-05-12T09:12:12.045Z,2.97
2023-05-12T09:15:20.393Z,2.90
2023-05-12T09:18:28.659Z,3.40
2023-05-12T09:21:30.819Z,3.55
2023-05-12T09:24:41.255Z,3.72
2023-05-12T09:27:47.949Z,3.28
2023-05-12T09:30:50.919Z,3.10
2023-05-12T09:33:53.104Z,3.17
2023-05-12T09:37:00.172Z,3.20
2023-05-12T09:40:08.085Z,3.00
2023-05-12T09:43:10.216Z,2.70
2023-05-12T09:46:15.122Z,2.60
2023-05-12T09:49:22.610Z,2.33
2023-05-12T09:52:27.958Z,2.58
2023-05-12T09:55:37.345Z,2.97
2023-05-12T09:58:44.517Z,2.97
2023-05-12T10:01:46.328Z,3.20
2023-05-12T10:04:55.467Z,3.33
2023-05-12T10:08:00.363Z,3.17
2023-05-12T10:11:05.397Z,3.05
2023-05-12T10:14:09.732Z,3.17
2023-05-12T10:17:12.561Z,3.28
2023-05-12T10:20:16.003Z,2.93
2023-05-12T10:23:18.795Z,2.80
2023-05-12T10:26:21.715Z,3.00
2023-05-12T10:29:30.653Z,2.70
2023-05-12T10:32:32.502Z,2.60
2023-05-12T10:35:36.404Z,3.10
2023-05-12T10:38:39.529Z,2.60
2023-05-12T10:41:43.388Z,2.53
2023-05-12T10:44:52.010Z,2.87
2023-05-12T10:48:06.889Z,2.80
2023-05-12T10:51:11.186Z,2.83
2023-05-12T10:54:20.345Z,4.15
2023-05-12T10:57:23.191Z,3.03
2023-05-12T11:00:27.022Z,2.50
2023-05-12T11:03:30.438Z,2.40
2023-05-12T11:06:33.029Z,2.15
2023-05-12T11:09:49.828Z,1.88
2023-05-12T11:12:55.633Z,1.70
2023-05-12T11:15:58.555Z,1.73
2023-05-12T11:19:04.877Z,1.70
2023-05-12T11:22:07.854Z,1.58
2023-05-12T11:25:11.869Z,1.80
2023-05-12T11:28:14.069Z,1.50
2023-05-12T11:31:21.234Z,1.70
2023-05-12T11:34:25.008Z,1.67
2023-05-12T11:37:26.700Z,1.90
2023-05-12T11:40:28.842Z,1.90
2023-05-12T11:43:30.640Z,1.75
2023-05-12T11:46:32.929Z,1.93
2023-05-12T11:49:45.340Z,2.00
2023-05-12T11:52:47.485Z,2.10
2023-05-12T11:55:51.145Z,2.00
2023-05-12T11:58:56.102Z,2.10
2023-05-12T12:01:58.821Z,2.20
2023-05-12T12:05:00.769Z,2.40
2023-05-12T12:08:20.984Z,2.47
2023-05-12T12:11:24.629Z,2.50
2023-05-12T12:14:26.936Z,2.40
2023-05-12T12:17:31.364Z,2.65
2023-05-12T12:20:33.526Z,2.40
2023-05-12T12:23:49.965Z,2.75
2023-05-12T12:26:53.372Z,2.70
2023-05-12T12:29:55.155Z,2.95
2023-05-12T12:32:57.271Z,3.25
2023-05-12T12:35:59.444Z,3.38
2023-05-12T12:39:01.526Z,3.43
2023-05-12T12:42:03.278Z,3.75
2023-05-12T12:45:05.867Z,3.72
2023-05-12T12:48:09.488Z,3.50
2023-05-12T12:51:11.518Z,3.30
2023-05-12T12:54:14.609Z,3.67
2023-05-12T12:57:17.295Z,3.90
2023-05-12T13:00:19.892Z,4.22
2023-05-12T13:03:23.165Z,4.07
2023-05-12T13:06:24.850Z,4.03
2023-05-12T13:09:26.468Z,4.50
2023-05-12T13:12:30.542Z,5.55
2023-05-12T13:15:32.680Z,5.50
2023-05-12T13:18:34.834Z,5.72
2023-05-12T13:21:37.801Z,5.78
2023-05-12T13:24:40.372Z,6.00
2023-05-12T13:27:42.627Z,5.70
2023-05-12T13:30:45.104Z,6.10
2023-05-12T13:33:47.654Z,6.03
2023-05-12T13:36:49.975Z,5.97
2023-05-12T13:39:52.098Z,5.33
2023-05-12T13:42:54.485Z,5.45
2023-05-12T13:45:56.142Z,5.70
2023-05-12T13:48:57.926Z,5.07
2023-05-12T13:52:00.194Z,5.53
2023-05-12T13:55:01.866Z,5.30
2023-05-12T13:58:04.052Z,5.50
2023-05-12T14:01:08.010Z,5.75
2023-05-12T14:04:11.730Z,5.78
2023-05-12T14:07:13.323Z,5.95
2023-05-12T14:10:14.981Z,5.18
2023-05-12T14:13:17.321Z,5.60
2023-05-12T14:16:19.074Z,5.80
2023-05-12T14:19:21.571Z,5.53
2023-05-12T14:22:26.469Z,5.15
2023-05-12T14:25:30.797Z,5.50
2023-05-12T14:28:33.051Z,5.20
2023-05-12T14:31:36.742Z,5.30
2023-05-12T14:34:39.480Z,5.53
2023-05-12T14:37:41.163Z,5.90
2023-05-12T14:40:43.935Z,5.43
2023-05-12T14:43:46.861Z,5.68
2023-05-12T14:46:48.987Z,5.65
2023-05-12T14:49:51.589Z,5.33
2023-05-12T14:52:53.758Z,5.45
2023-05-12T14:55:56.940Z,5.20
2023-05-12T14:58:59.536Z,5.47
2023-05-12T15:02:02.940Z,5.13
2023-05-12T15:05:07.143Z,5.32
2023-05-12T15:08:10.971Z,5.30
2023-05-12T15:11:13.047Z,4.72
2023-05-12T15:14:15.099Z,4.60
2023-05-12T15:17:16.796Z,4.80
2023-05-12T15:20:18.937Z,4.63
2023-05-12T15:23:21.336Z,4.57
2023-05-12T15:26:32.713Z,4.60
2023-05-12T15:29:40.117Z,4.30
2023-05-12T15:36:12.447Z,3.95
2023-05-12T15:39:18.956Z,3.10
2023-05-12T15:42:26.145Z,3.20
2023-05-12T15:45:37.359Z,2.78
2023-05-12T15:48:39.541Z,2.70
2023-05-12T15:51:42.716Z,2.30
2023-05-12T15:54:44.351Z,2.22
2023-05-12T15:57:45.998Z,2.30
2023-05-12T16:00:48.186Z,2.25
2023-05-12T16:03:51.114Z,2.37
2023-05-12T16:06:52.761Z,2.28
2023-05-12T16:09:55.546Z,2.70
2023-05-12T16:12:57.623Z,2.80
2023-05-12T16:15:59.701Z,2.97
2023-05-12T16:19:03.309Z,2.80
2023-05-12T16:22:09.919Z,2.95
2023-05-12T16:25:13.794Z,3.20
2023-05-12T16:28:16.460Z,3.30
2023-05-12T16:31:26.921Z,3.10
2023-05-12T16:34:28.661Z,3.33
2023-05-12T16:37:30.679Z,3.15
2023-05-12T16:40:32.887Z,3.20
2023-05-12T16:43:34.633Z,3.42
2023-05-12T16:46:38.200Z,3.47
2023-05-12T16:49:43.834Z,3.65
2023-05-12T16:52:46.198Z,3.37
2023-05-12T16:55:47.966Z,3.70
2023-05-12T16:58:50.651Z,3.70
2023-05-12T17:01:52.925Z,3.70
2023-05-12T17:04:54.808Z,3.70
2023-05-12T17:07:57.371Z,3.60
2023-05-12T17:10:58.992Z,3.65
2023-05-12T17:14:01.554Z,3.65
2023-05-12T17:17:03.391Z,3.37
2023-05-12T17:20:06.461Z,3.78
2023-05-12T17:23:09.213Z,3.90
2023-05-12T17:26:11.528Z,3.60
2023-05-12T17:29:13.968Z,4.60
2023-05-12T17:32:16.003Z,4.45
2023-05-12T17:35:18.340Z,3.50
2023-05-12T17:38:20.949Z,3.87
2023-05-12T17:41:23.080Z,4.72
2023-05-12T17:44:25.369Z,3.42
2023-05-12T17:47:27.646Z,3.30
2023-05-12T17:50:30.449Z,3.50
2023-05-12T17:53:33.623Z,3.67
2023-05-12T17:56:39.656Z,3.42
2023-05-12T17:59:54.494Z,3.60
2023-05-12T18:02:56.944Z,3.55
2023-05-12T18:06:00.522Z,3.80
2023-05-12T18:09:07.311Z,3.50
2023-05-12T18:12:10.027Z,3.53
2023-05-12T18:15:17.655Z,3.50
2023-05-12T18:18:20.539Z,3.63
2023-05-12T18:21:23.385Z,3.65
2023-05-12T18:24:28.551Z,3.33
2023-05-12T18:27:30.632Z,3.40
2023-05-12T18:30:33.118Z,3.30
2023-05-12T18:33:35.656Z,3.10
2023-05-12T18:36:37.340Z,2.97
2023-05-12T18:39:39.164Z,2.88
2023-05-12T18:42:41.940Z,2.70
2023-05-12T18:45:44.426Z,2.90
2023-05-12T18:48:46.745Z,2.60
2023-05-12T18:51:48.956Z,3.00
2023-05-12T18:54:51.067Z,2.60
2023-05-12T18:57:53.118Z,2.90
2023-05-12T19:00:57.632Z,3.10
2023-05-12T19:03:59.217Z,3.10
2023-05-12T19:07:00.902Z,2.60
2023-05-12T19:10:03.148Z,2.92
2023-05-12T19:13:04.768Z,2.90
2023-05-12T19:16:06.769Z,3.00
2023-05-12T19:19:09.006Z,2.92
2023-05-12T19:22:10.867Z,2.80
2023-05-12T19:25:17.722Z,3.00
2023-05-12T19:28:20.776Z,2.93
2023-05-12T19:31:22.706Z,2.97
2023-05-12T19:34:25.207Z,2.90
2023-05-12T19:37:29.921Z,3.00
2023-05-12T19:40:32.243Z,2.80
2023-05-12T19:43:33.961Z,2.83
2023-05-12T19:46:36.138Z,2.80
2023-05-12T19:49:38.644Z,2.80
2023-05-12T19:52:40.372Z,2.70
2023-05-12T19:55:42.057Z,3.08
2023-05-12T19:58:44.743Z,3.00
2023-05-12T20:01:47.151Z,2.80
2023-05-12T20:04:48.866Z,2.65
2023-05-12T20:07:51.081Z,2.80
2023-05-12T20:10:52.986Z,2.50
2023-05-12T20:13:55.836Z,3.05
2023-05-12T20:16:59.005Z,3.05
2023-05-12T20:20:04.126Z,2.80
2023-05-12T20:23:07.217Z,2.90
2023-05-12T20:26:10.015Z,3.08
2023-05-12T20:29:21.038Z,2.90
2023-05-12T20:32:23.698Z,3.17
2023-05-12T20:35:25.642Z,2.70
2023-05-12T20:38:27.929Z,2.90
2023-05-12T20:41:29.584Z,3.00
2023-05-12T20:44:31.714Z,3.00
2023-05-12T20:47:34.890Z,2.90
2023-05-12T20:50:37.111Z,2.83
2023-05-12T20:53:39.149Z,2.80
2023-05-12T20:56:41.654Z,2.60
2023-05-12T20:59:45.270Z,2.90
2023-05-12T21:02:49.725Z,3.00
2023-05-12T21:05:51.365Z,3.40
2023-05-12T21:08:53.544Z,3.30
2023-05-12T21:11:55.567Z,3.30
2023-05-12T21:14:57.250Z,3.30
2023-05-12T21:17:59.003Z,3.25
2023-05-12T21:21:01.079Z,3.13
2023-05-12T21:24:02.821Z,3.13
2023-05-12T21:27:06.383Z,3.40
2023-05-12T21:30:09.966Z,3.47
2023-05-12T21:33:12.279Z,3.15
2023-05-12T21:36:14.673Z,3.47
2023-05-12T21:39:16.527Z,3.80
2023-05-12T21:42:18.644Z,3.60
2023-05-12T21:45:21.518Z,3.40
2023-05-12T21:48:24.858Z,3.60
2023-05-12T21:51:28.800Z,3.38
2023-05-12T21:54:33.713Z,3.10
2023-05-12T21:57:36.118Z,3.47
2023-05-12T22:00:37.772Z,3.65
2023-05-12T22:03:40.405Z,3.37
2023-05-12T22:06:43.504Z,3.55
2023-05-12T22:09:45.640Z,3.50
2023-05-12T22:12:48.324Z,3.40
2023-05-12T22:15:50.610Z,3.70
2023-05-12T22:18:53.404Z,3.78
2023-05-12T22:21:56.055Z,3.67
2023-05-12T22:24:59.496Z,4.17
2023-05-12T22:28:01.611Z,3.47
2023-05-12T22:31:03.766Z,3.65
2023-05-12T22:34:06.608Z,3.33
2023-05-12T22:37:08.367Z,3.50
2023-05-12T22:40:10.103Z,3.55
2023-05-12T22:43:13.499Z,3.53
2023-05-12T22:46:15.598Z,3.63
2023-05-12T22:49:17.185Z,3.28
2023-05-12T22:52:19.329Z,3.42
2023-05-12T22:55:21.569Z,3.33
2023-05-12T22:58:23.692Z,3.35
2023-05-12T23:01:25.830Z,3.50
2023-05-12T23:04:27.466Z,3.63
2023-05-12T23:07:29.585Z,3.50
2023-05-12T23:10:31.212Z,3.35
2023-05-12T23:13:33.108Z,3.47
2023-05-12T23:16:34.786Z,3.28
2023-05-12T23:19:37.057Z,3.42
2023-05-12T23:22:38.757Z,3.30
2023-05-12T23:25:41.850Z,3.20
2023-05-12T23:28:43.514Z,3.05
2023-05-12T23:31:45.732Z,3.20
2023-05-12T23:34:47.980Z,3.20
2023-05-12T23:37:50.232Z,2.97
2023-05-12T23:40:52.337Z,3.17
2023-05-12T23:43:54.400Z,3.22
2023-05-12T23:46:56.530Z,3.30
2023-05-12T23:49:59.598Z,3.33
2023-05-12T23:53:01.221Z,3.63
2023-05-12T23:56:03.407Z,3.17
2023-05-12T23:59:05.056Z,3.10
